Archival Weather

Ronald Reagan Washington Ntl

Arlington, Virginia (KDCA)

Report from: Sunday, March 19, 2023 8:52 AM EDT
Current time: Tuesday, February 27, 2024 4:39 AM EST

Current weather – Weather history – Daily summaries
Weather forecast

Temperature-0.6°C (30.9°F)
Wind chill-5.1°C (22.8°F)
Dew point-15.6°C (3.9°F)
Winds 8 kts (4.1 m/s, 9.2 mph) West-Northwest (290°)
Visibility10 mi. (16.1 km)
Clouds Few clouds 25,000 ft. (7,620 m)
Altimeter30.19 in.Hg (1022 mB)
Relative humidity31 %
Density altitude-2,178 ft. (-664 m)
Sea-level pressure102.2 kPa (1022 mB, 30.19 in.Hg)
Remarks System requires maintenance
Automated weather observing station with precipitation discriminator
Flight conditions Visual Meteorological Conditions
Raw dataKDCA 191252Z 29008KT 10SM FEW250 M01/M16 A3019 RMK AO2 SLP222 T10061156 $
An error has occurred. This application may no longer respond until reloaded. Reload 🗙